Time;durP1;ratioP1;P1;durP2;ratioP2;P2;SDS_P1;SDS_P2;PMS_P1;PMS_P2;Temp;Humidity;BMP_temperature;BMP_pressure;BME280_temperature;BME280_humidity;BME280_pressure;Samples;Min_cycle;Max_cycle;Signal;HPM_P1;HPM_P2
2022/03/10 00:01:45;;;;;;;15.10;10.80;;;1.50;71.60;;;;;;5023699;28;20044;-67
2022/03/10 00:04:11;;;;;;;16.80;11.73;;;1.50;71.70;;;;;;4988768;28;21266;-68
2022/03/10 00:06:37;;;;;;;16.45;10.77;;;1.60;71.80;;;;;;5002251;28;20091;-67
2022/03/10 00:09:02;;;;;;;18.20;11.98;;;1.60;71.60;;;;;;5008518;28;20045;-67
2022/03/10 00:11:28;;;;;;;16.38;10.60;;;1.60;71.70;;;;;;5021909;28;20050;-67
2022/03/10 00:13:55;;;;;;;13.27;10.48;;;1.60;71.40;;;;;;5025572;28;20046;-67
2022/03/10 00:16:21;;;;;;;15.18;11.27;;;1.70;71.40;;;;;;5019585;28;20082;-67
2022/03/10 00:18:47;;;;;;;15.88;11.13;;;1.70;71.60;;;;;;5024641;28;20100;-68
2022/03/10 00:21:13;;;;;;;18.90;12.23;;;1.70;71.40;;;;;;5024632;28;20530;-67
2022/03/10 00:23:39;;;;;;;14.80;11.45;;;1.70;71.40;;;;;;5023355;28;20045;-67
2022/03/10 00:26:05;;;;;;;17.90;11.27;;;1.70;71.30;;;;;;5021566;28;20092;-67
2022/03/10 00:28:31;;;;;;;17.95;11.45;;;1.60;71.30;;;;;;5006643;28;20540;-67
2022/03/10 00:30:57;;;;;;;14.73;12.30;;;1.60;71.50;;;;;;5021885;28;20049;-67
2022/03/10 00:33:23;;;;;;;15.70;11.70;;;1.60;71.60;;;;;;5006011;28;20800;-67
2022/03/10 00:35:48;;;;;;;19.13;12.27;;;1.60;71.60;;;;;;5026356;28;20481;-67
2022/03/10 00:38:14;;;;;;;13.75;10.88;;;1.60;71.70;;;;;;5007796;28;20120;-67
2022/03/10 00:40:40;;;;;;;21.05;11.70;;;1.60;71.90;;;;;;5022267;28;20047;-67
2022/03/10 00:43:13;;;;;;;14.05;10.90;;;1.60;71.80;;;;;;5020845;28;20125;-67
2022/03/10 00:45:39;;;;;;;13.65;10.75;;;1.50;71.90;;;;;;5008319;28;20067;-67
2022/03/10 00:48:05;;;;;;;16.90;12.38;;;1.50;71.90;;;;;;5022210;28;20048;-67
2022/03/10 00:50:31;;;;;;;18.80;12.52;;;1.40;71.90;;;;;;5003396;28;20053;-67
2022/03/10 00:52:59;;;;;;;15.18;10.82;;;1.40;72.20;;;;;;4988737;28;20141;-67
2022/03/10 00:55:25;;;;;;;17.00;11.77;;;1.40;72.40;;;;;;5004551;28;20045;-67
2022/03/10 00:57:51;;;;;;;16.27;11.73;;;1.40;72.60;;;;;;5005764;28;20060;-67
2022/03/10 01:00:19;;;;;;;16.80;12.02;;;1.30;72.70;;;;;;5023867;28;20145;-67
2022/03/10 01:02:45;;;;;;;17.73;11.93;;;1.30;72.80;;;;;;5004224;28;20171;-67
2022/03/10 01:05:11;;;;;;;17.38;11.85;;;1.20;73.40;;;;;;5022940;28;20111;-67
2022/03/10 01:07:37;;;;;;;18.27;11.80;;;1.20;73.30;;;;;;5006001;28;20112;-67
2022/03/10 01:10:06;;;;;;;15.13;11.00;;;1.20;73.50;;;;;;5022443;28;20037;-67
2022/03/10 01:12:32;;;;;;;19.20;12.52;;;1.20;73.40;;;;;;5003971;28;20040;-67
2022/03/10 01:14:58;;;;;;;19.85;11.90;;;1.20;73.40;;;;;;5024633;28;20034;-67
2022/03/10 01:17:24;;;;;;;19.40;13.10;;;1.20;73.40;;;;;;5021694;28;20437;-67
2022/03/10 01:19:50;;;;;;;16.10;11.45;;;1.10;73.60;;;;;;5006473;28;20110;-67
2022/03/10 01:22:16;;;;;;;16.67;11.63;;;1.10;74.00;;;;;;5024894;28;20127;-67
2022/03/10 01:24:42;;;;;;;14.95;12.02;;;1.10;74.00;;;;;;5004322;28;20048;-67
2022/03/10 01:27:09;;;;;;;16.23;10.95;;;1.10;74.10;;;;;;5021245;28;20041;-67
2022/03/10 01:29:35;;;;;;;17.08;11.90;;;1.10;74.20;;;;;;5023185;28;20053;-67
2022/03/10 01:32:00;;;;;;;22.15;12.43;;;1.20;74.20;;;;;;5006299;28;20053;-67
2022/03/10 01:34:26;;;;;;;17.17;11.55;;;1.20;74.70;;;;;;5004861;28;20370;-67
2022/03/10 01:36:52;;;;;;;21.15;11.77;;;1.20;74.10;;;;;;5005396;28;20107;-67
2022/03/10 01:39:18;;;;;;;15.68;11.95;;;1.20;74.10;;;;;;5003110;28;20598;-67
2022/03/10 01:41:44;;;;;;;18.38;11.73;;;1.20;74.20;;;;;;5023924;28;20116;-67
2022/03/10 01:44:10;;;;;;;16.65;11.70;;;1.20;74.30;;;;;;5001903;28;20034;-66
2022/03/10 01:46:36;;;;;;;15.35;11.70;;;1.20;74.40;;;;;;5023993;28;20462;-67
2022/03/10 01:49:04;;;;;;;20.23;12.07;;;1.20;74.30;;;;;;5006473;28;20422;-67
2022/03/10 01:51:30;;;;;;;16.73;12.20;;;1.30;74.30;;;;;;5023101;28;20041;-67
2022/03/10 01:53:56;;;;;;;18.80;12.27;;;1.20;74.20;;;;;;5020573;28;20049;-67
2022/03/10 01:56:23;;;;;;;16.95;12.05;;;1.30;74.30;;;;;;4988545;28;20050;-67
2022/03/10 01:58:51;;;;;;;18.95;12.23;;;1.20;74.50;;;;;;5004070;28;20048;-67
2022/03/10 02:01:17;;;;;;;18.90;12.00;;;1.20;74.70;;;;;;5022572;28;20377;-67
2022/03/10 02:03:43;;;;;;;18.25;12.55;;;1.10;74.70;;;;;;5022243;28;20353;-67
2022/03/10 02:06:10;;;;;;;19.42;12.50;;;1.10;75.10;;;;;;5022140;28;20763;-67
2022/03/10 02:11:20;;;;;;;19.63;12.27;;;1.20;75.00;;;;;;5001322;28;20052;-67
2022/03/10 02:13:46;;;;;;;19.88;12.43;;;1.20;75.00;;;;;;5022253;28;20037;-67
2022/03/10 02:18:59;;;;;;;17.70;11.27;;;1.10;74.80;;;;;;5005986;28;20453;-67
2022/03/10 02:21:24;;;;;;;15.05;12.18;;;1.10;74.80;;;;;;5021782;28;20152;-67
2022/03/10 02:23:50;;;;;;;17.98;12.32;;;1.10;74.90;;;;;;5004135;28;20073;-67
2022/03/10 02:26:16;;;;;;;17.15;12.27;;;1.20;74.90;;;;;;5024478;28;20068;-67
2022/03/10 02:28:42;;;;;;;19.67;12.45;;;1.10;74.90;;;;;;5001906;28;20099;-66
2022/03/10 02:31:09;;;;;;;15.85;11.60;;;1.10;75.10;;;;;;5019670;28;20146;-67
2022/03/10 02:33:35;;;;;;;15.55;11.50;;;1.10;75.00;;;;;;5023408;28;20095;-67
2022/03/10 02:36:01;;;;;;;18.63;13.05;;;1.10;75.00;;;;;;4988895;28;20053;-66
2022/03/10 02:38:27;;;;;;;20.90;13.23;;;1.10;75.10;;;;;;5004071;28;20041;-67
2022/03/10 02:40:53;;;;;;;19.63;12.05;;;1.10;75.10;;;;;;5019297;28;20036;-67
2022/03/10 02:43:19;;;;;;;17.40;12.43;;;1.10;75.10;;;;;;5006096;28;20147;-67
2022/03/10 02:45:46;;;;;;;16.92;12.40;;;1.10;75.10;;;;;;5003082;28;20478;-66
2022/03/10 02:48:13;;;;;;;17.38;12.43;;;1.10;75.10;;;;;;5006946;28;20049;-68
2022/03/10 02:50:38;;;;;;;18.65;11.77;;;1.10;75.20;;;;;;5003617;28;20049;-68
2022/03/10 02:53:05;;;;;;;18.75;12.80;;;1.00;75.30;;;;;;5005294;28;20052;-67
2022/03/10 02:55:31;;;;;;;17.35;12.07;;;1.00;75.50;;;;;;5003842;28;20053;-68
2022/03/10 02:57:57;;;;;;;18.70;12.32;;;1.00;75.50;;;;;;5000640;28;20048;-67
2022/03/10 03:00:23;;;;;;;19.38;13.27;;;1.00;75.50;;;;;;5004420;28;20060;-68
2022/03/10 03:02:49;;;;;;;17.55;13.15;;;1.00;75.50;;;;;;5005159;28;20361;-68
2022/03/10 03:05:16;;;;;;;17.23;11.70;;;1.00;75.50;;;;;;5020106;28;20041;-68
2022/03/10 03:07:42;;;;;;;17.13;12.38;;;1.00;75.50;;;;;;5001195;28;20567;-68
2022/03/10 03:10:09;;;;;;;18.63;13.13;;;1.00;75.50;;;;;;5002801;28;20041;-67
2022/03/10 03:12:41;;;;;;;18.25;12.55;;;1.00;75.40;;;;;;5024261;28;20033;-68
2022/03/10 03:15:08;;;;;;;18.48;12.65;;;1.00;75.50;;;;;;5000164;28;20517;-68
2022/03/10 03:17:34;;;;;;;17.80;12.65;;;1.10;75.70;;;;;;5003438;28;20224;-67
2022/03/10 03:19:59;;;;;;;18.48;12.50;;;1.10;75.50;;;;;;5026286;28;20132;-68
2022/03/10 03:22:25;;;;;;;18.48;12.77;;;1.20;75.30;;;;;;4991257;28;20429;-68
2022/03/10 03:24:51;;;;;;;18.85;12.70;;;1.30;75.10;;;;;;5006934;28;20045;-68
2022/03/10 03:27:16;;;;;;;20.17;13.13;;;1.20;74.90;;;;;;4993520;28;20053;-67
2022/03/10 03:29:42;;;;;;;18.73;12.23;;;1.30;75.00;;;;;;5026791;28;20059;-67
2022/03/10 03:32:08;;;;;;;19.83;13.05;;;1.30;75.00;;;;;;5025114;28;20053;-67
2022/03/10 03:34:33;;;;;;;23.08;12.98;;;1.30;74.80;;;;;;5018962;28;20045;-67
2022/03/10 03:36:59;;;;;;;17.92;13.60;;;1.30;74.70;;;;;;4988739;28;20041;-68
2022/03/10 03:39:25;;;;;;;18.70;12.18;;;1.40;74.70;;;;;;5026439;28;20045;-67
2022/03/10 03:41:50;;;;;;;17.92;12.98;;;1.40;74.60;;;;;;5025631;28;20030;-67
2022/03/10 03:44:16;;;;;;;19.02;12.23;;;1.40;74.50;;;;;;5023354;28;20037;-68
2022/03/10 03:46:42;;;;;;;18.95;13.32;;;1.40;74.40;;;;;;5025434;28;20033;-68
2022/03/10 03:49:09;;;;;;;19.92;13.07;;;1.40;74.40;;;;;;5027469;28;20064;-68
2022/03/10 03:51:35;;;;;;;18.65;12.85;;;1.40;74.30;;;;;;5003661;28;20454;-68
2022/03/10 03:54:01;;;;;;;16.88;12.95;;;1.40;74.40;;;;;;5021406;28;20048;-68
2022/03/10 03:56:27;;;;;;;17.67;12.43;;;1.40;74.40;;;;;;5004983;28;20053;-68
2022/03/10 03:58:53;;;;;;;21.98;12.98;;;1.40;74.50;;;;;;5008064;28;20054;-68
2022/03/10 04:01:19;;;;;;;19.10;12.70;;;1.30;74.60;;;;;;5004109;28;20120;-68
2022/03/10 04:03:45;;;;;;;15.77;11.70;;;1.30;74.70;;;;;;5026510;28;20065;-68
2022/03/10 04:06:11;;;;;;;18.80;12.68;;;1.30;74.70;;;;;;5009288;28;20108;-68
2022/03/10 04:08:36;;;;;;;18.75;13.02;;;1.20;74.70;;;;;;5007936;28;20049;-68
2022/03/10 04:11:03;;;;;;;18.13;12.88;;;1.20;74.80;;;;;;5005512;28;20042;-68
2022/03/10 04:13:29;;;;;;;16.25;11.55;;;1.20;74.80;;;;;;5023820;28;20046;-67
2022/03/10 04:15:54;;;;;;;18.30;12.32;;;1.10;75.10;;;;;;5002822;28;20431;-68
2022/03/10 04:18:20;;;;;;;18.23;13.13;;;1.10;75.40;;;;;;5024019;28;20125;-68
2022/03/10 04:20:48;;;;;;;18.23;12.68;;;1.10;75.30;;;;;;5023692;28;20029;-68
2022/03/10 04:23:14;;;;;;;17.77;12.35;;;1.00;75.40;;;;;;5008705;28;20041;-67
2022/03/10 04:25:41;;;;;;;18.00;12.25;;;1.00;75.40;;;;;;5025635;28;20045;-68
2022/03/10 04:28:07;;;;;;;19.65;11.95;;;1.00;76.20;;;;;;5019447;28;20037;-67
2022/03/10 04:30:33;;;;;;;18.42;13.02;;;1.00;75.50;;;;;;5004748;28;20045;-68
2022/03/10 04:33:00;;;;;;;17.63;12.80;;;1.00;75.50;;;;;;5007108;28;20081;-68
2022/03/10 04:35:26;;;;;;;17.63;12.63;;;0.90;75.40;;;;;;5005492;28;20080;-68
2022/03/10 04:37:54;;;;;;;19.30;12.63;;;1.00;75.60;;;;;;5005475;28;20054;-67
2022/03/10 04:40:23;;;;;;;18.45;13.10;;;0.90;75.50;;;;;;5006511;28;20041;-68
2022/03/10 04:42:49;;;;;;;16.85;12.02;;;0.90;75.50;;;;;;5006774;28;20045;-67
2022/03/10 04:45:15;;;;;;;16.17;11.82;;;0.90;75.50;;;;;;5020194;28;20984;-67
2022/03/10 04:47:41;;;;;;;17.13;11.73;;;0.90;75.40;;;;;;5022472;28;20091;-68
2022/03/10 04:50:11;;;;;;;18.42;13.00;;;0.90;75.40;;;;;;5007556;28;20056;-67
2022/03/10 04:52:37;;;;;;;16.90;11.65;;;0.90;75.40;;;;;;5008862;28;20068;-67
2022/03/10 04:55:03;;;;;;;15.52;11.18;;;0.80;75.40;;;;;;5005337;28;20095;-67
2022/03/10 04:57:29;;;;;;;16.98;11.50;;;0.80;75.50;;;;;;5004179;28;20060;-67
2022/03/10 04:59:54;;;;;;;17.27;11.50;;;0.80;75.60;;;;;;5006550;28;20029;-67
2022/03/10 05:02:20;;;;;;;17.60;12.27;;;0.70;75.60;;;;;;5022772;28;20071;-67
2022/03/10 05:04:46;;;;;;;18.35;11.95;;;0.70;75.80;;;;;;5006017;28;20465;-67
2022/03/10 05:07:12;;;;;;;18.90;12.63;;;0.70;76.00;;;;;;5008585;28;20689;-67
2022/03/10 05:09:38;;;;;;;15.65;11.73;;;0.60;76.10;;;;;;5022982;28;20434;-67
2022/03/10 05:12:05;;;;;;;17.90;11.65;;;0.60;76.30;;;;;;5007221;28;20484;-67
2022/03/10 05:14:30;;;;;;;16.85;11.85;;;0.50;76.50;;;;;;5026001;28;20084;-67
2022/03/10 05:16:56;;;;;;;17.17;11.23;;;0.50;76.70;;;;;;5008000;28;20057;-65
2022/03/10 05:19:22;;;;;;;16.00;11.82;;;0.50;76.80;;;;;;5022253;28;20033;-65
2022/03/10 05:21:47;;;;;;;18.83;11.48;;;0.50;76.90;;;;;;5006811;28;20037;-66
2022/03/10 05:24:13;;;;;;;15.40;10.93;;;0.50;76.80;;;;;;5019830;28;20029;-66
2022/03/10 05:26:39;;;;;;;19.90;11.23;;;0.50;76.90;;;;;;5025165;28;20045;-66
2022/03/10 05:29:05;;;;;;;16.95;11.88;;;0.60;77.00;;;;;;5008018;28;20492;-66
2022/03/10 05:31:31;;;;;;;15.15;11.02;;;0.60;76.60;;;;;;5002309;28;20052;-67
2022/03/10 05:33:56;;;;;;;16.33;11.70;;;0.60;76.50;;;;;;5020100;28;20574;-66
2022/03/10 05:36:22;;;;;;;17.83;12.25;;;0.70;76.40;;;;;;5007295;28;20045;-66
2022/03/10 05:38:48;;;;;;;16.95;11.60;;;0.70;76.10;;;;;;5004575;28;20452;-67
2022/03/10 05:41:14;;;;;;;17.30;11.65;;;0.60;76.10;;;;;;5021808;28;20045;-66
2022/03/10 05:43:39;;;;;;;15.45;10.40;;;0.60;76.20;;;;;;5001135;28;20044;-67
2022/03/10 05:46:05;;;;;;;17.98;11.63;;;0.60;76.40;;;;;;5022091;28;20045;-67
2022/03/10 05:48:32;;;;;;;18.10;11.63;;;0.60;76.30;;;;;;5000767;28;20111;-67
2022/03/10 05:50:58;;;;;;;20.33;11.35;;;0.60;76.40;;;;;;5000067;28;20061;-67
2022/03/10 05:53:24;;;;;;;16.38;11.63;;;0.60;76.40;;;;;;5020241;28;20041;-67
2022/03/10 05:55:50;;;;;;;15.77;11.32;;;0.60;76.50;;;;;;5009883;28;20128;-67
2022/03/10 05:58:16;;;;;;;19.08;11.70;;;0.60;76.50;;;;;;4999124;28;20046;-67
2022/03/10 06:00:41;;;;;;;16.55;11.70;;;0.60;76.60;;;;;;5002013;28;20574;-67
2022/03/10 06:03:07;;;;;;;14.75;10.90;;;0.60;76.60;;;;;;5022220;28;20040;-67
2022/03/10 06:05:33;;;;;;;15.50;11.18;;;0.60;76.60;;;;;;5007239;28;20185;-67
2022/03/10 06:07:59;;;;;;;16.63;12.20;;;0.60;76.70;;;;;;5024084;28;20492;-67
2022/03/10 06:10:25;;;;;;;15.98;11.10;;;0.60;76.70;;;;;;5019630;28;20052;-67
2022/03/10 06:12:51;;;;;;;14.85;11.32;;;0.60;76.70;;;;;;5022233;28;20449;-67
2022/03/10 06:15:16;;;;;;;20.42;11.70;;;0.70;76.70;;;;;;5005372;28;20064;-67
2022/03/10 06:17:42;;;;;;;17.77;12.18;;;0.70;76.70;;;;;;4999004;28;20056;-67
2022/03/10 06:20:08;;;;;;;15.40;10.95;;;0.70;76.80;;;;;;5021299;28;20124;-67
2022/03/10 06:22:35;;;;;;;14.07;11.05;;;0.70;76.90;;;;;;5002393;28;20110;-67
2022/03/10 06:25:01;;;;;;;15.55;11.10;;;0.70;77.00;;;;;;5020702;28;20551;-67
2022/03/10 06:27:26;;;;;;;19.50;12.43;;;0.70;77.20;;;;;;5022667;28;20136;-67
2022/03/10 06:29:53;;;;;;;16.65;11.85;;;0.60;77.30;;;;;;5021095;28;20119;-67
2022/03/10 06:32:20;;;;;;;15.23;11.68;;;0.70;77.50;;;;;;5022344;28;20049;-67
2022/03/10 06:34:47;;;;;;;19.90;12.25;;;0.70;77.90;;;;;;5002504;28;20092;-67
2022/03/10 06:37:14;;;;;;;18.52;12.60;;;0.70;78.00;;;;;;5018338;28;20034;-67
2022/03/10 06:39:40;;;;;;;19.65;11.93;;;0.70;78.10;;;;;;5023319;28;20112;-67
2022/03/10 06:42:06;;;;;;;16.98;11.90;;;0.80;78.30;;;;;;5022171;28;20048;-67
2022/03/10 06:44:33;;;;;;;16.88;11.82;;;0.90;78.30;;;;;;5023537;28;20191;-67
2022/03/10 06:46:59;;;;;;;19.02;12.82;;;1.00;78.30;;;;;;4998629;28;20037;-68
2022/03/10 06:49:25;;;;;;;17.38;12.25;;;1.10;78.40;;;;;;5023908;28;20477;-67
2022/03/10 06:51:51;;;;;;;16.70;11.77;;;1.20;78.10;;;;;;5004095;28;20057;-67
2022/03/10 06:54:17;;;;;;;20.23;12.65;;;1.30;78.00;;;;;;5001437;28;20130;-67
2022/03/10 06:56:44;;;;;;;15.95;11.27;;;1.40;77.70;;;;;;5003193;28;20053;-67
2022/03/10 06:59:10;;;;;;;18.20;13.15;;;1.50;77.50;;;;;;5003526;28;20187;-67
2022/03/10 07:01:37;;;;;;;14.85;11.70;;;1.60;77.10;;;;;;5020677;28;20053;-67
2022/03/10 07:04:02;;;;;;;18.02;11.85;;;1.80;76.80;;;;;;5021959;28;20595;-67
2022/03/10 07:06:28;;;;;;;16.55;12.35;;;2.00;76.40;;;;;;5021274;28;20113;-67
2022/03/10 07:08:54;;;;;;;17.10;12.52;;;2.10;76.30;;;;;;5021221;28;20346;-67
2022/03/10 07:11:20;;;;;;;16.58;11.48;;;2.20;76.00;;;;;;5003917;28;20056;-67
2022/03/10 07:13:47;;;;;;;17.73;12.20;;;2.40;75.90;;;;;;5017959;28;20032;-67
2022/03/10 07:16:13;;;;;;;16.55;11.85;;;2.50;75.70;;;;;;5003276;28;20054;-67
2022/03/10 07:18:39;;;;;;;20.35;12.88;;;2.70;75.70;;;;;;5005326;28;20447;-67
2022/03/10 07:21:05;;;;;;;17.80;12.02;;;2.80;75.60;;;;;;4996864;28;20050;-67
2022/03/10 07:23:33;;;;;;;18.92;12.30;;;3.00;75.60;;;;;;5018146;28;20087;-67
2022/03/10 07:25:59;;;;;;;18.00;12.88;;;3.20;75.90;;;;;;5020241;28;20052;-67
2022/03/10 07:28:25;;;;;;;15.68;12.57;;;3.40;75.70;;;;;;5019788;28;20096;-67
2022/03/10 07:30:51;;;;;;;18.30;13.30;;;3.70;75.40;;;;;;5016667;28;20062;-67
2022/03/10 07:33:17;;;;;;;17.08;13.32;;;4.20;74.90;;;;;;5005590;28;20044;-67
2022/03/10 07:35:43;;;;;;;19.05;13.15;;;5.00;74.40;;;;;;5019964;28;20041;-67
2022/03/10 07:38:10;;;;;;;16.60;12.65;;;5.90;72.80;;;;;;5024575;28;20047;-68
2022/03/10 07:40:37;;;;;;;16.50;12.70;;;6.70;71.30;;;;;;5011612;28;20073;-68
2022/03/10 07:43:05;;;;;;;15.73;12.63;;;7.40;69.20;;;;;;5001056;28;20049;-67
2022/03/10 07:45:32;;;;;;;15.68;11.98;;;8.10;66.20;;;;;;5015571;28;20449;-68
2022/03/10 07:47:57;;;;;;;17.50;13.35;;;8.70;64.30;;;;;;4999500;28;20054;-67
2022/03/10 07:50:23;;;;;;;14.25;12.05;;;9.30;62.80;;;;;;5019939;28;20046;-68
2022/03/10 07:52:49;;;;;;;16.63;12.10;;;9.60;60.70;;;;;;5004554;28;20046;-68
2022/03/10 07:55:15;;;;;;;17.42;12.82;;;10.10;59.40;;;;;;5001955;28;20050;-67
2022/03/10 07:57:41;;;;;;;16.90;13.05;;;10.30;58.30;;;;;;5002404;28;20061;-67
2022/03/10 08:00:09;;;;;;;16.38;12.30;;;10.80;58.10;;;;;;5019404;28;20116;-67
2022/03/10 08:02:36;;;;;;;15.52;12.00;;;11.30;57.60;;;;;;5001966;28;20058;-68
2022/03/10 08:05:02;;;;;;;14.60;13.13;;;11.60;56.10;;;;;;5024052;28;20034;-68
2022/03/10 08:07:32;;;;;;;13.55;12.00;;;11.80;55.10;;;;;;5025022;28;20041;-68
2022/03/10 08:09:59;;;;;;;14.57;11.73;;;12.20;54.80;;;;;;5021302;28;20366;-68
2022/03/10 08:12:29;;;;;;;18.08;12.85;;;12.60;54.40;;;;;;5024901;28;20077;-68
2022/03/10 08:14:55;;;;;;;14.48;12.23;;;12.80;53.20;;;;;;5004527;28;20084;-68
2022/03/10 08:17:21;;;;;;;13.82;12.32;;;13.00;53.10;;;;;;5023606;28;20552;-68
2022/03/10 08:19:47;;;;;;;14.55;12.55;;;13.00;51.80;;;;;;5005336;28;20137;-68
2022/03/10 08:22:15;;;;;;;15.98;13.20;;;13.00;51.60;;;;;;5023310;28;20053;-68
2022/03/10 08:24:41;;;;;;;14.30;12.48;;;13.30;51.70;;;;;;5020964;28;20125;-68
2022/03/10 08:27:07;;;;;;;14.95;13.32;;;13.60;50.90;;;;;;5019303;28;20038;-68
2022/03/10 08:29:33;;;;;;;17.55;12.65;;;13.80;51.20;;;;;;5023094;28;20488;-68
2022/03/10 08:31:59;;;;;;;14.75;13.25;;;14.10;50.30;;;;;;5006066;28;20485;-68
2022/03/10 08:34:24;;;;;;;14.45;12.95;;;14.00;49.40;;;;;;5020880;28;20069;-68
2022/03/10 08:36:50;;;;;;;15.38;13.52;;;14.40;49.70;;;;;;5017115;28;20041;-68
2022/03/10 08:39:16;;;;;;;14.85;12.68;;;14.70;48.90;;;;;;5022297;28;20107;-68
2022/03/10 08:41:42;;;;;;;17.05;12.95;;;15.00;48.20;;;;;;5022579;28;20034;-68
2022/03/10 08:44:08;;;;;;;15.50;12.50;;;15.30;48.00;;;;;;5024640;28;20833;-68
2022/03/10 08:46:33;;;;;;;14.43;12.73;;;15.70;48.00;;;;;;5024027;28;20041;-68
2022/03/10 08:49:00;;;;;;;16.08;12.65;;;16.00;46.70;;;;;;5025018;28;20052;-68
2022/03/10 08:51:26;;;;;;;13.95;12.55;;;16.30;46.20;;;;;;5024506;28;20128;-68
2022/03/10 08:53:52;;;;;;;13.40;12.02;;;16.30;45.30;;;;;;5023171;28;20128;-68
2022/03/10 08:56:17;;;;;;;13.65;11.70;;;16.30;45.40;;;;;;5022521;28;20064;-69
2022/03/10 08:58:43;;;;;;;13.10;11.82;;;16.50;45.10;;;;;;5020603;28;20050;-68
2022/03/10 09:01:08;;;;;;;12.82;11.52;;;17.10;44.90;;;;;;5019503;28;20061;-68
2022/03/10 09:03:34;;;;;;;14.02;12.52;;;17.40;44.40;;;;;;5029268;28;20069;-68
2022/03/10 09:06:00;;;;;;;13.07;11.80;;;17.40;44.00;;;;;;5023110;28;20060;-68
2022/03/10 09:08:26;;;;;;;14.15;12.75;;;17.60;43.30;;;;;;5024212;28;20053;-68
2022/03/10 09:10:51;;;;;;;13.75;12.35;;;17.60;43.70;;;;;;5014243;28;20052;-68
2022/03/10 09:13:17;;;;;;;13.45;12.05;;;17.80;43.00;;;;;;5018554;28;20041;-68
2022/03/10 09:15:45;;;;;;;12.85;11.40;;;18.00;42.20;;;;;;5019809;28;20037;-67
2022/03/10 09:18:12;;;;;;;12.40;11.10;;;17.90;42.40;;;;;;5024021;28;20393;-68
2022/03/10 09:20:38;;;;;;;13.70;12.02;;;18.20;42.80;;;;;;5025754;28;20042;-68
2022/03/10 09:23:03;;;;;;;13.40;11.93;;;18.50;42.20;;;;;;5022071;28;20073;-68
2022/03/10 09:25:29;;;;;;;13.20;11.98;;;18.60;41.90;;;;;;5027191;28;20033;-67
2022/03/10 09:27:55;;;;;;;13.45;12.05;;;18.90;41.50;;;;;;5026235;28;20076;-66
2022/03/10 09:30:21;;;;;;;12.10;10.90;;;19.00;40.90;;;;;;5026400;28;20049;-64
2022/03/10 09:32:47;;;;;;;12.77;11.63;;;19.10;40.70;;;;;;5012507;28;20463;-66
2022/03/10 09:35:17;;;;;;;12.57;11.38;;;19.10;40.80;;;;;;5025939;28;20711;-66
2022/03/10 09:37:44;;;;;;;12.80;11.50;;;19.20;40.50;;;;;;5004090;28;20041;-66
2022/03/10 09:40:10;;;;;;;12.40;11.10;;;19.30;40.10;;;;;;5024536;28;20040;-66
2022/03/10 09:42:37;;;;;;;13.45;12.07;;;19.70;40.20;;;;;;5008728;28;20045;-66
2022/03/10 09:45:08;;;;;;;12.60;11.40;;;20.00;39.40;;;;;;5024678;28;20044;-66
2022/03/10 09:47:35;;;;;;;13.10;11.75;;;20.30;38.30;;;;;;5023644;28;20690;-67
2022/03/10 09:50:10;;;;;;;12.82;11.52;;;20.20;37.60;;;;;;5022798;28;20041;-66
2022/03/10 09:52:37;;;;;;;14.68;11.77;;;20.10;35.30;;;;;;5026546;28;20036;-66
2022/03/10 09:55:04;;;;;;;15.88;12.70;;;20.00;37.00;;;;;;5019881;28;20548;-66
2022/03/10 09:57:30;;;;;;;14.43;11.93;;;20.40;36.90;;;;;;5024417;28;20414;-67
2022/03/10 09:59:59;;;;;;;12.77;11.52;;;20.40;35.80;;;;;;5024868;28;20072;-69
2022/03/10 10:02:27;;;;;;;13.52;12.13;;;20.50;36.60;;;;;;5023292;28;20057;-69
2022/03/10 10:04:53;;;;;;;12.77;11.32;;;20.60;36.30;;;;;;5005401;28;20053;-69
2022/03/10 10:07:21;;;;;;;15.38;12.32;;;20.40;35.20;;;;;;5020880;28;20042;-69
2022/03/10 10:09:56;;;;;;;13.13;11.82;;;20.30;35.50;;;;;;5021011;28;20497;-69
2022/03/10 10:12:29;;;;;;;13.82;12.40;;;20.70;35.30;;;;;;5005323;28;20049;-69
2022/03/10 10:15:00;;;;;;;14.52;12.30;;;21.00;35.40;;;;;;5022055;28;20668;-68
2022/03/10 10:17:35;;;;;;;15.30;12.63;;;21.10;34.50;;;;;;5022000;28;20048;-69
2022/03/10 10:20:01;;;;;;;16.10;11.90;;;20.90;34.20;;;;;;5022656;28;20177;-69
2022/03/10 10:22:29;;;;;;;13.50;12.18;;;20.50;34.50;;;;;;5023211;28;20076;-69
2022/03/10 10:25:00;;;;;;;14.20;12.23;;;20.60;34.80;;;;;;4999430;28;20104;-70
2022/03/10 10:27:33;;;;;;;14.30;12.20;;;20.40;34.80;;;;;;5021497;28;20045;-70
2022/03/10 10:30:04;;;;;;;14.60;12.40;;;20.40;35.60;;;;;;5021350;28;20087;-69
2022/03/10 10:32:29;;;;;;;14.25;12.50;;;20.50;34.90;;;;;;5004389;28;20054;-68
2022/03/10 10:35:13;;;;;;;13.30;11.90;;;20.70;35.50;;;;;;5022897;28;20045;-70
2022/03/10 10:37:42;;;;;;;14.48;13.00;;;20.70;33.80;;;;;;5022627;28;20416;-70
2022/03/10 10:40:09;;;;;;;14.23;12.45;;;20.30;34.00;;;;;;5005656;28;20050;-69
2022/03/10 10:42:37;;;;;;;15.05;12.57;;;20.10;34.80;;;;;;5023318;28;20050;-70
2022/03/10 10:45:32;;;;;;;14.63;12.50;;;20.10;35.30;;;;;;5021460;28;20096;-69
2022/03/10 10:48:04;;;;;;;15.32;13.80;;;20.40;36.30;;;;;;5019961;28;20053;-70
2022/03/10 10:50:38;;;;;;;15.65;13.15;;;20.70;35.40;;;;;;5015804;28;20077;-69
2022/03/10 10:53:05;;;;;;;15.68;13.88;;;20.90;34.10;;;;;;5014924;28;20038;-69
2022/03/10 10:55:45;;;;;;;14.60;12.82;;;21.00;34.50;;;;;;5018398;28;20042;-70
2022/03/10 10:58:14;;;;;;;15.38;13.77;;;20.90;34.40;;;;;;5001942;28;20054;-71
2022/03/10 11:00:46;;;;;;;14.88;13.48;;;21.00;34.40;;;;;;5020329;28;20041;-70
2022/03/10 11:03:22;;;;;;;14.63;13.10;;;21.30;35.00;;;;;;5020125;28;20116;-70
2022/03/10 11:05:49;;;;;;;15.07;13.30;;;21.10;34.30;;;;;;5025049;28;20587;-70
2022/03/10 11:08:20;;;;;;;15.10;13.68;;;20.90;34.10;;;;;;5000630;28;20051;-70
2022/03/10 11:10:46;;;;;;;15.77;14.18;;;21.10;34.20;;;;;;5006479;28;20049;-71
2022/03/10 11:13:12;;;;;;;16.60;14.80;;;21.20;34.20;;;;;;5017230;28;20037;-71
2022/03/10 11:15:39;;;;;;;16.42;14.60;;;21.30;34.00;;;;;;5022354;28;20045;-71
2022/03/10 11:18:05;;;;;;;15.88;14.18;;;21.50;34.30;;;;;;5005096;28;20056;-71
2022/03/10 11:20:32;;;;;;;16.25;14.75;;;21.70;33.80;;;;;;4997377;28;20050;-71
2022/03/10 11:23:25;;;;;;;16.02;14.52;;;21.90;33.80;;;;;;5008925;28;20053;-68
2022/03/10 11:26:13;;;;;;;16.00;14.13;;;21.80;32.40;;;;;;5022204;28;20499;-71
2022/03/10 11:28:46;;;;;;;16.10;14.55;;;21.50;31.80;;;;;;5023668;28;20045;-72
2022/03/10 11:31:12;;;;;;;16.88;15.15;;;21.20;33.20;;;;;;5003350;28;20084;-72
2022/03/10 11:33:38;;;;;;;17.08;15.27;;;21.40;33.40;;;;;;4991119;28;20041;-72
2022/03/10 11:36:23;;;;;;;17.10;14.68;;;21.60;33.90;;;;;;4997435;28;20072;-71
2022/03/10 11:38:53;;;;;;;17.50;15.25;;;21.70;32.90;;;;;;5004124;28;20120;-70
2022/03/10 11:41:19;;;;;;;19.92;15.63;;;21.70;33.60;;;;;;4996072;28;20092;-68
2022/03/10 11:44:00;;;;;;;17.70;15.13;;;21.60;33.10;;;;;;5025362;28;20049;-68
2022/03/10 11:46:28;;;;;;;16.15;14.35;;;21.80;32.70;;;;;;5024428;28;20093;-66
2022/03/10 11:49:03;;;;;;;17.15;15.52;;;21.50;32.30;;;;;;5026747;28;20044;-66
2022/03/10 11:51:44;;;;;;;18.15;14.63;;;21.20;32.90;;;;;;5023483;28;20069;-66
2022/03/10 11:54:10;;;;;;;17.98;15.00;;;21.20;33.10;;;;;;5025921;28;20103;-66
2022/03/10 11:56:45;;;;;;;16.35;14.65;;;21.40;33.60;;;;;;5025522;28;20461;-67
2022/03/10 11:59:24;;;;;;;17.20;15.50;;;21.50;33.10;;;;;;5027477;28;20046;-66
2022/03/10 12:01:49;;;;;;;16.15;14.38;;;21.70;33.20;;;;;;5024134;28;20232;-66
2022/03/10 12:04:23;;;;;;;18.65;16.85;;;21.80;33.00;;;;;;5021632;28;20124;-66
2022/03/10 12:06:58;;;;;;;16.67;14.88;;;21.70;32.20;;;;;;5024870;28;20030;-66
2022/03/10 12:09:30;;;;;;;16.73;14.95;;;21.60;32.60;;;;;;5008032;28;20055;-67
2022/03/10 12:12:20;;;;;;;19.45;14.98;;;21.60;32.20;;;;;;5026957;28;20570;-68
2022/03/10 12:14:46;;;;;;;19.80;15.10;;;21.50;32.10;;;;;;5025642;28;20057;-67
2022/03/10 12:17:43;;;;;;;19.52;16.70;;;21.30;31.50;;;;;;5026255;28;20539;-67
2022/03/10 12:20:13;;;;;;;17.63;15.55;;;21.30;31.90;;;;;;5024469;28;20045;-67
2022/03/10 12:22:39;;;;;;;18.42;16.40;;;20.90;33.00;;;;;;5029639;28;20480;-66
2022/03/10 12:25:22;;;;;;;18.88;15.70;;;21.00;33.20;;;;;;5026802;28;20068;-67
2022/03/10 12:27:52;;;;;;;18.00;16.02;;;21.40;32.50;;;;;;5026510;28;20044;-69
2022/03/10 12:30:21;;;;;;;17.98;15.43;;;21.20;33.00;;;;;;5022745;28;20096;-67
2022/03/10 12:32:52;;;;;;;19.48;16.30;;;21.30;32.40;;;;;;5022415;28;20080;-68
2022/03/10 12:35:20;;;;;;;16.85;15.05;;;21.60;32.60;;;;;;5002364;28;20410;-68
2022/03/10 12:37:49;;;;;;;18.55;15.95;;;21.90;32.30;;;;;;5023474;28;20042;-68
2022/03/10 12:40:26;;;;;;;17.70;15.82;;;21.90;31.60;;;;;;5004840;28;20712;-67